Time;durP1;ratioP1;P1;durP2;ratioP2;P2;SDS_P1;SDS_P2;PMS_P1;PMS_P2;Temp;Humidity;BMP_temperature;BMP_pressure;BME280_temperature;BME280_humidity;BME280_pressure;Samples;Min_cycle;Max_cycle;Signal;HPM_P1;HPM_P2
2022/05/04 05:03:52;;;;;;;17.58;9.43;;;11.90;99.90;;;;;;4922237;23;20051;-78
2022/05/04 05:06:19;;;;;;;14.00;9.60;;;12.00;99.90;;;;;;4909869;29;20186;-77
2022/05/04 05:08:47;;;;;;;11.15;8.60;;;12.00;99.90;;;;;;4926420;29;20044;-79
2022/05/04 05:11:13;;;;;;;12.43;9.55;;;12.10;99.90;;;;;;4895308;29;20088;-79
2022/05/04 05:16:24;;;;;;;12.20;7.75;;;12.20;99.90;;;;;;4907276;29;20055;-80
2022/05/04 05:18:50;;;;;;;11.20;7.95;;;12.20;99.90;;;;;;4897839;29;20063;-79
2022/05/04 05:21:16;;;;;;;11.80;8.07;;;12.30;99.90;;;;;;4926352;29;20036;-79
2022/05/04 05:23:42;;;;;;;10.40;7.97;;;12.30;99.90;;;;;;4925563;29;20032;-77
2022/05/04 05:26:08;;;;;;;9.60;7.35;;;12.30;99.90;;;;;;4909191;29;20103;-77
2022/05/04 05:28:34;;;;;;;11.75;7.72;;;12.40;99.90;;;;;;4926017;29;20016;-79
2022/05/04 05:34:52;;;;;;;12.32;7.88;;;12.50;99.90;;;;;;4887699;29;20028;-79
2022/05/04 05:37:20;;;;;;;12.02;7.75;;;12.60;99.90;;;;;;4887287;29;20037;-78
2022/05/04 05:39:47;;;;;;;9.70;7.63;;;12.70;99.90;;;;;;4887073;29;20097;-78
2022/05/04 05:46:02;;;;;;;9.88;7.75;;;13.00;99.90;;;;;;4888361;29;20045;-78
2022/05/04 05:48:53;;;;;;;9.85;7.97;;;13.00;99.90;;;;;;4868226;29;20033;-81
2022/05/04 05:51:18;;;;;;;8.65;6.95;;;13.00;99.90;;;;;;4852994;29;20057;-77
2022/05/04 05:53:44;;;;;;;9.25;7.05;;;13.10;99.90;;;;;;4867648;29;20040;-79
2022/05/04 05:56:11;;;;;;;11.30;7.50;;;13.10;99.90;;;;;;4852781;29;20037;-81
2022/05/04 06:02:21;;;;;;;16.88;9.50;;;13.20;99.90;;;;;;4885724;29;20087;-80
2022/05/04 06:04:46;;;;;;;17.60;9.13;;;13.40;99.90;;;;;;4894859;29;20393;-78
2022/05/04 06:07:12;;;;;;;14.55;8.18;;;13.40;99.90;;;;;;4908806;29;20044;-80
2022/05/04 06:09:38;;;;;;;14.38;7.78;;;13.60;99.90;;;;;;4903687;29;20024;-79
2022/05/04 06:12:04;;;;;;;16.25;8.80;;;13.70;99.90;;;;;;4889810;29;20232;-79
2022/05/04 06:14:30;;;;;;;16.73;8.93;;;13.80;99.90;;;;;;4907363;29;20032;-79
2022/05/04 06:16:56;;;;;;;13.07;7.43;;;13.80;99.90;;;;;;4907907;29;20048;-78
2022/05/04 06:19:25;;;;;;;11.73;7.43;;;13.90;99.90;;;;;;4907395;29;20088;-79
2022/05/04 06:22:16;;;;;;;15.70;8.05;;;13.90;99.90;;;;;;4897624;29;20376;-78
2022/05/04 06:24:41;;;;;;;10.35;7.20;;;14.00;99.90;;;;;;4888328;29;20083;-80
2022/05/04 06:27:07;;;;;;;10.75;7.03;;;14.00;99.90;;;;;;4886939;29;20040;-79
2022/05/04 06:35:04;;;;;;;10.35;7.40;;;14.10;99.90;;;;;;4908537;29;20087;-79
2022/05/04 06:37:31;;;;;;;10.93;7.18;;;14.20;99.90;;;;;;4928583;29;20032;-79
2022/05/04 06:39:57;;;;;;;10.02;6.65;;;14.40;99.90;;;;;;4912283;29;20024;-78
2022/05/04 06:42:22;;;;;;;8.75;6.68;;;14.40;99.90;;;;;;4896460;29;20099;-81
2022/05/04 06:44:48;;;;;;;12.63;7.50;;;14.50;99.90;;;;;;4911919;29;20099;-82
2022/05/04 06:47:17;;;;;;;6.60;5.90;;;14.50;99.90;;;;;;4912537;29;20062;-79
2022/05/04 06:49:46;;;;;;;14.18;6.63;;;14.60;99.90;;;;;;4892862;29;20040;-80
2022/05/04 06:55:52;;;;;;;8.45;6.30;;;14.40;99.90;;;;;;4909439;29;20073;-81
2022/05/04 06:58:17;;;;;;;9.15;6.15;;;14.60;99.90;;;;;;4909686;29;20028;-82
2022/05/04 07:00:43;;;;;;;9.75;6.22;;;14.60;99.90;;;;;;4892650;29;20308;-80
2022/05/04 07:03:09;;;;;;;8.40;6.13;;;14.70;99.90;;;;;;4877822;29;20053;-82
2022/05/04 07:05:35;;;;;;;7.97;6.00;;;14.80;99.90;;;;;;4880233;29;20057;-79
2022/05/04 07:08:01;;;;;;;10.48;6.10;;;15.00;99.90;;;;;;4889641;29;20032;-81
2022/05/04 07:10:26;;;;;;;8.18;6.05;;;15.20;99.90;;;;;;4928413;29;20046;-80
2022/05/04 07:12:53;;;;;;;9.50;6.75;;;15.30;99.90;;;;;;4928169;29;20214;-80
2022/05/04 07:15:19;;;;;;;8.73;6.18;;;15.30;99.90;;;;;;4893257;29;20270;-80
2022/05/04 07:17:45;;;;;;;10.15;6.70;;;15.50;99.90;;;;;;4892462;29;20120;-80
2022/05/04 07:20:20;;;;;;;8.60;6.50;;;15.60;99.90;;;;;;4909904;29;20040;-83
2022/05/04 07:22:50;;;;;;;9.38;6.10;;;15.60;99.90;;;;;;4893097;29;20317;-82
2022/05/04 07:25:16;;;;;;;8.63;6.38;;;15.70;99.90;;;;;;4909417;29;20140;-78
2022/05/04 07:27:42;;;;;;;9.20;6.60;;;15.70;99.20;;;;;;4909130;29;20020;-79
2022/05/04 07:30:08;;;;;;;8.82;6.45;;;15.80;99.00;;;;;;4908643;29;20032;-81
2022/05/04 07:32:37;;;;;;;9.85;6.40;;;15.80;98.60;;;;;;4876887;29;20024;-81
2022/05/04 07:35:05;;;;;;;10.52;6.28;;;15.70;98.70;;;;;;4892695;29;20329;-81
2022/05/04 07:37:31;;;;;;;11.50;7.20;;;15.60;98.30;;;;;;4892703;29;20346;-78
2022/05/04 07:47:07;;;;;;;10.27;7.15;;;15.80;98.40;;;;;;4906811;29;20036;-80
2022/05/04 07:50:17;;;;;;;9.20;6.38;;;16.10;97.80;;;;;;4877107;29;20096;-78
2022/05/04 07:53:23;;;;;;;10.38;6.75;;;16.20;97.40;;;;;;4858764;29;20227;-77
2022/05/04 07:56:08;;;;;;;11.90;6.95;;;16.70;96.40;;;;;;4855208;29;20045;-83
2022/05/04 08:04:45;;;;;;;16.85;7.90;;;17.20;94.50;;;;;;4900848;29;20108;-77
2022/05/04 08:07:11;;;;;;;10.30;6.80;;;17.20;94.70;;;;;;4890471;29;20037;-76
2022/05/04 08:09:36;;;;;;;8.88;6.43;;;17.50;94.10;;;;;;4895177;29;20314;-79
2022/05/04 08:12:11;;;;;;;11.45;6.75;;;17.80;93.80;;;;;;4887920;29;20037;-77
2022/05/04 08:14:39;;;;;;;9.23;6.43;;;17.70;93.40;;;;;;4887915;29;20099;-80
2022/05/04 08:17:06;;;;;;;10.23;6.30;;;17.90;93.30;;;;;;4889931;29;20060;-79
2022/05/04 08:19:32;;;;;;;10.70;7.00;;;17.80;93.10;;;;;;4908194;29;20041;-78
2022/05/04 08:21:58;;;;;;;10.98;6.72;;;17.90;92.80;;;;;;4907815;29;20049;-78
2022/05/04 08:24:24;;;;;;;10.52;6.45;;;18.10;92.60;;;;;;4891712;29;20035;-78
2022/05/04 08:27:15;;;;;;;9.35;6.43;;;17.90;92.50;;;;;;4908482;29;20079;-79
2022/05/04 08:29:47;;;;;;;7.55;5.70;;;18.00;92.60;;;;;;4908797;29;20075;-78
2022/05/04 08:32:15;;;;;;;8.63;5.63;;;18.00;92.00;;;;;;4891881;29;20083;-77
2022/05/04 08:34:41;;;;;;;7.88;5.38;;;18.00;92.40;;;;;;4885500;29;20060;-78
2022/05/04 08:37:08;;;;;;;7.70;5.53;;;17.90;92.50;;;;;;4891002;29;20330;-79
2022/05/04 08:39:33;;;;;;;7.78;5.25;;;17.80;92.00;;;;;;4901477;29;20036;-76
2022/05/04 08:42:00;;;;;;;6.68;4.60;;;17.80;92.20;;;;;;4902352;29;20106;-77
2022/05/04 08:47:31;;;;;;;5.72;2.88;;;17.80;91.10;;;;;;5118602;23;20063;-81
2022/05/04 08:49:57;;;;;;;3.05;2.50;;;17.50;90.30;;;;;;4926236;29;20039;-77
2022/05/04 08:52:23;;;;;;;5.50;2.95;;;17.30;90.20;;;;;;4910016;29;20091;-78
2022/05/04 08:54:52;;;;;;;4.35;3.22;;;17.20;91.10;;;;;;4940455;29;20030;-79
2022/05/04 08:57:18;;;;;;;5.38;2.92;;;17.20;91.70;;;;;;4945532;29;20124;-78
2022/05/04 08:59:44;;;;;;;5.82;3.03;;;17.10;91.90;;;;;;4944809;29;20047;-79
2022/05/04 09:02:28;;;;;;;4.78;3.40;;;17.20;92.90;;;;;;4945282;29;20062;-80
2022/05/04 09:08:58;;;;;;;7.72;4.28;;;17.10;94.10;;;;;;4919738;29;20055;-80
2022/05/04 09:11:24;;;;;;;7.47;4.32;;;17.10;94.10;;;;;;4925699;29;20035;-79
2022/05/04 09:13:52;;;;;;;6.35;4.43;;;17.00;95.20;;;;;;4926859;29;20056;-78
2022/05/04 09:16:28;;;;;;;7.10;4.40;;;16.60;96.40;;;;;;4924556;29;20108;-80
2022/05/04 09:18:54;;;;;;;8.98;4.15;;;16.40;97.70;;;;;;4924645;29;20122;-80
2022/05/04 09:21:29;;;;;;;7.57;4.50;;;16.20;98.10;;;;;;4926198;29;20063;-80
2022/05/04 09:24:30;;;;;;;8.10;5.13;;;16.10;99.90;;;;;;4924813;29;20051;-80
2022/05/04 09:26:59;;;;;;;7.53;4.75;;;16.30;98.90;;;;;;4925904;29;20096;-80
2022/05/04 09:29:59;;;;;;;8.10;5.05;;;16.30;99.60;;;;;;4925157;29;20195;-80
2022/05/04 09:32:37;;;;;;;7.35;4.43;;;16.40;99.50;;;;;;4925688;29;20048;-80
2022/05/04 09:35:22;;;;;;;5.63;4.15;;;16.30;99.60;;;;;;4924409;29;20084;-79
2022/05/04 09:45:15;;;;;;;5.55;4.35;;;17.30;99.30;;;;;;4848913;29;20045;-81
2022/05/04 09:47:45;;;;;;;8.50;4.63;;;17.60;97.10;;;;;;4849111;29;20109;-78
2022/05/04 09:50:15;;;;;;;6.80;3.95;;;17.90;96.60;;;;;;4848530;29;20096;-80
2022/05/04 09:53:02;;;;;;;6.28;4.30;;;18.50;95.50;;;;;;4830991;29;20056;-80
2022/05/04 09:55:57;;;;;;;9.77;5.15;;;19.00;94.40;;;;;;4846752;29;20041;-77
2022/05/04 09:58:58;;;;;;;7.65;4.57;;;19.30;92.70;;;;;;4865355;29;20139;-79
2022/05/04 10:01:24;;;;;;;8.55;5.00;;;19.40;93.90;;;;;;4849672;29;20267;-79
2022/05/04 10:03:52;;;;;;;8.85;5.25;;;19.90;92.90;;;;;;4850023;29;20101;-80
2022/05/04 10:06:19;;;;;;;8.70;5.90;;;20.10;93.20;;;;;;4868546;29;20303;-79
2022/05/04 10:08:44;;;;;;;7.93;5.68;;;20.20;92.30;;;;;;4876558;29;20123;-78
2022/05/04 10:11:14;;;;;;;8.38;6.55;;;20.60;91.60;;;;;;4890824;29;20358;-80
2022/05/04 10:13:46;;;;;;;8.50;6.20;;;20.40;90.50;;;;;;4907453;29;20120;-79
2022/05/04 10:16:13;;;;;;;7.57;6.18;;;20.00;92.10;;;;;;4908169;29;20051;-79
2022/05/04 10:22:31;;;;;;;7.85;6.45;;;20.30;90.70;;;;;;4892149;29;20076;-79
2022/05/04 10:25:01;;;;;;;6.75;6.00;;;20.40;90.80;;;;;;4927311;29;20077;-83
2022/05/04 10:27:28;;;;;;;11.60;7.20;;;20.70;90.70;;;;;;4911372;29;20107;-82
2022/05/04 10:32:52;;;;;;;8.27;5.80;;;20.80;89.20;;;;;;4910721;29;20044;-80
2022/05/04 10:35:36;;;;;;;9.60;6.18;;;21.10;86.10;;;;;;4911343;29;20052;-82
2022/05/04 10:38:04;;;;;;;7.22;6.15;;;21.30;87.10;;;;;;4911017;29;20440;-81
2022/05/04 10:44:18;;;;;;;9.82;6.07;;;21.70;84.30;;;;;;4912787;29;20093;-81
2022/05/04 10:46:49;;;;;;;6.88;5.85;;;22.10;84.50;;;;;;4910275;29;20048;-80
2022/05/04 10:49:16;;;;;;;7.75;6.20;;;21.80;82.90;;;;;;4922987;29;20025;-81
2022/05/04 10:51:50;;;;;;;8.52;5.75;;;22.00;83.20;;;;;;4926843;29;20029;-79
2022/05/04 10:54:18;;;;;;;8.93;7.22;;;22.40;85.60;;;;;;4911447;29;20036;-79
2022/05/04 10:56:48;;;;;;;8.25;6.63;;;22.40;83.60;;;;;;4926482;29;20031;-81
2022/05/04 10:59:30;;;;;;;8.45;7.00;;;22.50;85.40;;;;;;4926949;29;20036;-81
2022/05/04 11:02:04;;;;;;;8.13;6.95;;;22.80;84.40;;;;;;4925876;29;20122;-81
2022/05/04 11:04:31;;;;;;;7.97;6.35;;;22.80;84.10;;;;;;4926552;29;20076;-80
2022/05/04 11:07:06;;;;;;;9.35;7.07;;;22.60;84.50;;;;;;4908132;29;20032;-79
2022/05/04 11:09:39;;;;;;;6.95;5.53;;;22.50;82.70;;;;;;4923001;29;20039;-81
2022/05/04 11:12:07;;;;;;;7.60;4.63;;;22.30;80.80;;;;;;4914061;29;20039;-82
2022/05/04 11:14:37;;;;;;;7.32;5.10;;;22.70;81.70;;;;;;4930277;29;20028;-83
2022/05/04 11:17:17;;;;;;;6.57;5.00;;;22.90;80.60;;;;;;4913601;29;20099;-81
2022/05/04 11:19:44;;;;;;;5.57;3.92;;;23.40;79.30;;;;;;4908002;29;20036;-81
2022/05/04 11:22:11;;;;;;;7.60;4.47;;;23.90;76.70;;;;;;4922807;29;20104;-80
2022/05/04 11:24:41;;;;;;;4.43;3.00;;;24.60;75.80;;;;;;4932985;29;20060;-80
2022/05/04 11:27:07;;;;;;;5.78;3.65;;;25.50;74.00;;;;;;4938917;29;20035;-79
2022/05/04 11:29:38;;;;;;;4.00;3.30;;;25.90;71.40;;;;;;4929439;29;20087;-79
2022/05/04 11:32:17;;;;;;;7.93;3.28;;;26.30;69.80;;;;;;4931661;29;20128;-81
2022/05/04 11:35:14;;;;;;;5.95;2.97;;;26.30;69.00;;;;;;4927114;29;20099;-81
2022/05/04 11:37:40;;;;;;;3.55;2.60;;;27.00;65.60;;;;;;4926668;29;20062;-83
2022/05/04 11:40:14;;;;;;;4.93;2.80;;;26.90;64.50;;;;;;4927186;29;20322;-82
2022/05/04 11:42:44;;;;;;;4.60;2.92;;;26.80;65.00;;;;;;4927220;29;20337;-80
2022/05/04 11:45:11;;;;;;;4.05;2.63;;;26.70;66.10;;;;;;4911146;29;20036;-83
2022/05/04 11:47:43;;;;;;;6.90;2.30;;;26.80;64.80;;;;;;4904387;29;20056;-80
2022/05/04 11:50:09;;;;;;;3.80;2.50;;;27.00;67.00;;;;;;4907537;29;20049;-81
2022/05/04 11:52:40;;;;;;;5.53;2.33;;;27.10;66.80;;;;;;4915788;29;20036;-81
2022/05/04 11:55:06;;;;;;;3.58;2.30;;;27.20;64.40;;;;;;4908446;29;20037;-82
2022/05/04 11:57:59;;;;;;;5.07;2.25;;;27.30;63.20;;;;;;4911127;29;20042;-82
2022/05/04 12:00:24;;;;;;;4.60;2.63;;;27.30;64.90;;;;;;4911016;29;20036;-83
2022/05/04 12:02:50;;;;;;;5.50;2.70;;;27.70;61.60;;;;;;4895150;29;20202;-82
2022/05/04 12:05:18;;;;;;;5.28;3.20;;;27.80;62.70;;;;;;4909072;29;20332;-82
2022/05/04 12:07:44;;;;;;;6.57;2.70;;;28.50;60.70;;;;;;4925289;29;20163;-81
2022/05/04 12:10:11;;;;;;;5.50;2.88;;;29.00;60.90;;;;;;4912112;29;20028;-81
2022/05/04 12:12:53;;;;;;;3.20;2.20;;;30.30;60.30;;;;;;4926318;29;20222;-82
2022/05/04 12:15:23;;;;;;;4.22;2.17;;;31.80;59.20;;;;;;4928213;29;20108;-82
2022/05/04 12:18:03;;;;;;;4.10;2.70;;;32.80;56.40;;;;;;4927731;29;20283;-83
2022/05/04 12:20:30;;;;;;;3.78;2.70;;;33.00;56.00;;;;;;4926476;29;20310;-83
2022/05/04 12:22:57;;;;;;;4.63;2.20;;;32.90;54.40;;;;;;4927249;29;20024;-80
2022/05/04 12:25:24;;;;;;;3.50;2.28;;;32.80;53.60;;;;;;4927515;29;20324;-81
2022/05/04 12:27:58;;;;;;;6.78;2.60;;;32.20;54.10;;;;;;4925929;29;20084;-81
2022/05/04 12:33:53;;;;;;;4.32;2.30;;;31.60;57.30;;;;;;4926536;29;20032;-81
2022/05/04 12:36:46;;;;;;;3.05;2.13;;;32.80;55.40;;;;;;4927319;29;20028;-82
2022/05/04 12:39:31;;;;;;;3.75;2.15;;;33.80;54.50;;;;;;4910826;29;20368;-79
2022/05/04 12:41:58;;;;;;;3.75;2.30;;;34.00;54.00;;;;;;4927659;29;20036;-79
2022/05/04 12:44:23;;;;;;;4.70;2.05;;;33.70;54.20;;;;;;4932711;29;20096;-79
2022/05/04 12:46:58;;;;;;;5.57;2.60;;;32.70;55.50;;;;;;4928613;29;20071;-81
2022/05/04 12:49:25;;;;;;;5.10;2.58;;;31.20;55.60;;;;;;4923260;29;20356;-79
2022/05/04 12:51:58;;;;;;;4.40;2.47;;;30.40;56.20;;;;;;4924062;29;20381;-79
2022/05/04 12:54:30;;;;;;;4.20;2.30;;;30.40;56.80;;;;;;4914022;29;20036;-79
2022/05/04 12:56:56;;;;;;;3.13;2.40;;;31.30;57.70;;;;;;4907253;29;20095;-80
2022/05/04 12:59:21;;;;;;;3.63;2.20;;;31.70;55.00;;;;;;4921915;29;20044;-80
2022/05/04 13:01:47;;;;;;;3.53;1.92;;;32.50;54.40;;;;;;4913957;29;20104;-76
2022/05/04 13:04:18;;;;;;;5.43;2.00;;;32.50;56.30;;;;;;4918304;29;20056;-77
2022/05/04 13:06:53;;;;;;;3.30;2.00;;;32.80;53.70;;;;;;4911495;29;20040;-78
2022/05/04 13:09:19;;;;;;;4.25;2.35;;;32.60;54.30;;;;;;4920230;29;20307;-78
2022/05/04 13:11:53;;;;;;;3.25;2.08;;;32.80;55.00;;;;;;4914418;29;20020;-79
2022/05/04 13:14:23;;;;;;;3.72;2.42;;;33.30;54.50;;;;;;4912165;29;20040;-79
2022/05/04 13:16:51;;;;;;;3.15;1.98;;;33.50;52.30;;;;;;4911582;29;20044;-77
2022/05/04 13:19:18;;;;;;;4.05;2.03;;;33.20;52.60;;;;;;4910934;29;20029;-79
2022/05/04 13:21:47;;;;;;;3.03;1.80;;;32.40;52.80;;;;;;4919096;29;20020;-78
2022/05/04 13:24:13;;;;;;;3.22;1.83;;;31.90;54.30;;;;;;4901913;29;20121;-81
2022/05/04 13:26:43;;;;;;;2.70;1.90;;;31.50;53.50;;;;;;4921719;29;20028;-79
2022/05/04 13:29:14;;;;;;;4.80;2.10;;;30.80;55.60;;;;;;4918653;29;20032;-79
2022/05/04 13:31:49;;;;;;;3.58;1.95;;;30.30;54.90;;;;;;4910612;29;20156;-80
2022/05/04 13:34:15;;;;;;;3.47;1.90;;;30.10;56.40;;;;;;4916284;29;20068;-79
2022/05/04 13:36:47;;;;;;;3.70;1.88;;;29.90;55.90;;;;;;4912769;29;20107;-78
2022/05/04 13:39:12;;;;;;;4.43;2.10;;;28.80;57.00;;;;;;4918346;29;20033;-78
2022/05/04 13:41:39;;;;;;;5.93;2.78;;;27.40;58.50;;;;;;4921436;29;20084;-82
2022/05/04 13:44:06;;;;;;;4.85;2.40;;;25.90;60.50;;;;;;4916983;29;20051;-80
2022/05/04 13:46:38;;;;;;;3.72;2.65;;;25.30;63.10;;;;;;4930562;29;20047;-80
2022/05/04 13:49:03;;;;;;;4.28;2.50;;;24.40;64.20;;;;;;4920912;29;20059;-79
2022/05/04 13:54:20;;;;;;;3.83;2.38;;;24.80;64.30;;;;;;4917465;29;20036;-78
2022/05/04 13:57:04;;;;;;;2.85;2.05;;;25.10;62.90;;;;;;4911021;29;20036;-80
2022/05/04 13:59:32;;;;;;;5.95;2.63;;;25.60;62.30;;;;;;4913007;29;20032;-80
2022/05/04 14:02:03;;;;;;;4.35;2.40;;;25.90;63.40;;;;;;4922675;29;20178;-79
2022/05/04 14:04:32;;;;;;;3.65;2.25;;;25.40;62.20;;;;;;4921885;29;20031;-79
2022/05/04 14:07:07;;;;;;;2.83;2.10;;;25.30;63.30;;;;;;4911139;29;20033;-80
2022/05/04 14:09:39;;;;;;;4.88;1.95;;;26.20;62.00;;;;;;4917768;29;20031;-79
2022/05/04 14:12:18;;;;;;;4.07;2.40;;;25.60;61.70;;;;;;4908522;29;20017;-79
2022/05/04 14:15:02;;;;;;;4.22;2.50;;;25.00;62.60;;;;;;4915376;29;20111;-75
2022/05/04 14:17:32;;;;;;;3.75;2.17;;;24.80;63.30;;;;;;4910657;29;20063;-80
2022/05/04 14:26:41;;;;;;;3.45;2.15;;;26.80;59.70;;;;;;5421398;23;20048;-80
2022/05/04 14:29:07;;;;;;;4.00;2.00;;;27.10;58.80;;;;;;4893460;29;20340;-80
2022/05/04 14:31:33;;;;;;;4.93;2.03;;;26.90;58.90;;;;;;4904898;29;20045;-79
2022/05/04 14:33:59;;;;;;;2.97;1.85;;;27.10;59.30;;;;;;4906602;29;20053;-82
2022/05/04 14:36:25;;;;;;;3.28;1.83;;;27.80;60.50;;;;;;4906131;29;20342;-81
2022/05/04 14:38:51;;;;;;;3.30;1.77;;;29.00;58.60;;;;;;4906318;29;20060;-80
2022/05/04 14:41:17;;;;;;;3.78;1.70;;;30.40;57.60;;;;;;4905025;29;20207;-80
2022/05/04 14:43:49;;;;;;;5.00;1.77;;;31.10;55.70;;;;;;4905915;29;20028;-80
2022/05/04 14:46:15;;;;;;;4.30;1.80;;;33.30;53.80;;;;;;4909662;29;20390;-79
2022/05/04 14:59:01;;;;;;;3.42;1.60;;;30.40;56.00;;;;;;4888739;29;20290;-78
2022/05/04 15:08:33;;;;;;;3.25;1.65;;;33.90;52.10;;;;;;4889123;29;20089;-81
2022/05/04 15:10:59;;;;;;;3.33;1.23;;;34.00;50.90;;;;;;4888878;29;20044;-81
2022/05/04 15:13:25;;;;;;;3.60;1.52;;;35.30;50.40;;;;;;4873798;29;20037;-81
2022/05/04 15:15:51;;;;;;;3.25;1.65;;;35.90;50.10;;;;;;4888088;29;20041;-80
2022/05/04 15:18:17;;;;;;;6.90;2.15;;;33.70;50.10;;;;;;4889110;29;20045;-79
2022/05/04 15:20:55;;;;;;;3.72;1.58;;;31.80;52.00;;;;;;4888533;29;20064;-78
2022/05/04 15:23:21;;;;;;;3.97;1.80;;;30.90;54.80;;;;;;4888823;29;20147;-80
2022/05/04 15:25:47;;;;;;;5.10;1.90;;;30.10;53.60;;;;;;4873600;29;20088;-79
2022/05/04 15:28:13;;;;;;;3.75;1.70;;;29.50;54.90;;;;;;4889007;29;20325;-79
2022/05/04 15:30:42;;;;;;;12.30;2.88;;;29.00;55.50;;;;;;4888667;29;20029;-81
2022/05/04 16:07:02;;;;;;;2.58;1.60;;;28.00;55.80;;;;;;5405451;23;20094;-80
2022/05/04 16:09:28;;;;;;;4.13;1.58;;;28.50;55.40;;;;;;4923211;29;20056;-79
2022/05/04 16:11:54;;;;;;;3.72;1.40;;;29.20;54.30;;;;;;4934799;29;20079;-79
2022/05/04 16:14:21;;;;;;;3.58;1.40;;;28.90;55.00;;;;;;4914186;29;20062;-80
2022/05/04 16:22:16;;;;;;;3.50;1.58;;;28.60;56.00;;;;;;4916770;29;20035;-79
2022/05/04 16:24:42;;;;;;;5.78;2.97;;;28.30;55.80;;;;;;4913039;29;20028;-79
2022/05/04 16:27:08;;;;;;;5.78;2.92;;;27.30;60.30;;;;;;4929344;29;20037;-81
2022/05/04 16:29:34;;;;;;;5.88;3.50;;;26.60;62.20;;;;;;4914099;29;20034;-79
2022/05/04 16:32:00;;;;;;;4.40;3.35;;;25.70;64.40;;;;;;4912358;29;20052;-80
2022/05/04 16:34:25;;;;;;;4.88;3.28;;;24.70;66.20;;;;;;4910092;29;20111;-79
2022/05/04 16:36:51;;;;;;;5.80;3.67;;;24.10;67.40;;;;;;4909244;29;20030;-79
2022/05/04 16:39:17;;;;;;;5.65;3.85;;;23.20;69.50;;;;;;4909829;29;20080;-78
2022/05/04 16:41:49;;;;;;;8.60;4.05;;;22.50;71.30;;;;;;4902469;29;20040;-81
2022/05/04 16:44:15;;;;;;;6.55;3.90;;;21.80;72.40;;;;;;4907058;29;20226;-81
2022/05/04 16:46:40;;;;;;;4.65;3.50;;;21.20;73.80;;;;;;4907485;29;20060;-82
2022/05/04 16:52:49;;;;;;;5.22;3.45;;;20.60;76.00;;;;;;4908515;29;20032;-79
2022/05/04 16:55:23;;;;;;;5.47;3.97;;;20.10;77.40;;;;;;4907656;29;20036;-81
2022/05/04 16:57:49;;;;;;;6.60;3.72;;;20.00;78.20;;;;;;4909502;29;20047;-80
2022/05/04 17:00:15;;;;;;;6.43;4.03;;;19.80;78.50;;;;;;4929968;29;20031;-81
2022/05/04 17:02:53;;;;;;;5.22;3.22;;;19.90;78.80;;;;;;4940256;29;20027;-80
2022/05/04 17:05:19;;;;;;;4.50;2.92;;;19.80;78.00;;;;;;4941470;29;20032;-78
2022/05/04 17:07:45;;;;;;;4.80;3.20;;;19.80;77.60;;;;;;4930847;29;20056;-80
2022/05/04 17:10:22;;;;;;;6.32;3.50;;;19.80;76.00;;;;;;4911727;29;20334;-78
2022/05/04 17:12:48;;;;;;;5.38;3.15;;;19.70;76.00;;;;;;4908241;29;20035;-78
2022/05/04 17:15:39;;;;;;;6.82;3.95;;;19.50;76.80;;;;;;4907148;29;20036;-80
2022/05/04 17:18:06;;;;;;;6.45;3.50;;;19.30;76.90;;;;;;4906480;29;20037;-81
2022/05/04 17:20:31;;;;;;;5.57;2.75;;;19.20;77.30;;;;;;4906649;29;20032;-79
2022/05/04 17:22:58;;;;;;;5.63;3.10;;;19.20;77.70;;;;;;4919333;29;20031;-78
2022/05/04 17:25:49;;;;;;;5.32;2.88;;;19.20;75.80;;;;;;4910022;29;20103;-80
2022/05/04 17:28:18;;;;;;;4.97;3.00;;;19.10;74.90;;;;;;4925633;29;20326;-80
2022/05/04 17:30:53;;;;;;;4.05;2.67;;;19.10;75.60;;;;;;4924583;29;20143;-79
2022/05/04 17:38:55;;;;;;;5.93;2.88;;;18.90;75.00;;;;;;4907983;29;20354;-80
2022/05/04 17:41:27;;;;;;;3.55;2.53;;;18.70;75.80;;;;;;4925588;29;20023;-78
2022/05/04 17:43:55;;;;;;;3.97;2.42;;;18.60;76.20;;;;;;4892730;29;20310;-78
2022/05/04 17:46:24;;;;;;;6.80;2.50;;;18.70;76.40;;;;;;4924799;29;20102;-80
2022/05/04 17:56:28;;;;;;;4.57;3.30;;;18.40;77.10;;;;;;4833294;29;20257;-78
2022/05/04 17:58:54;;;;;;;5.70;3.72;;;18.10;79.20;;;;;;4828649;29;20046;-78
2022/05/04 18:04:25;;;;;;;4.78;3.60;;;17.70;82.40;;;;;;4815624;29;20042;-77
2022/05/04 18:06:51;;;;;;;6.72;4.10;;;17.40;83.80;;;;;;4799595;29;20351;-78
2022/05/04 18:09:17;;;;;;;4.95;3.58;;;17.20;85.30;;;;;;4820360;29;20054;-77
2022/05/04 18:11:44;;;;;;;5.97;4.25;;;17.00;86.30;;;;;;4796394;29;20042;-77
2022/05/04 18:14:10;;;;;;;5.60;3.67;;;16.90;87.40;;;;;;4812507;29;20312;-77
2022/05/04 18:16:36;;;;;;;7.25;4.22;;;16.90;88.20;;;;;;4810662;29;20050;-77
2022/05/04 18:19:29;;;;;;;7.78;4.70;;;16.90;88.60;;;;;;4811659;29;20399;-79
2022/05/04 18:21:59;;;;;;;7.15;4.60;;;16.80;89.30;;;;;;4796897;29;20280;-80
2022/05/04 18:24:31;;;;;;;6.80;5.00;;;16.70;90.10;;;;;;4812656;29;20332;-81
2022/05/04 18:27:03;;;;;;;7.53;5.35;;;16.40;90.60;;;;;;4811932;29;20058;-80
2022/05/04 18:29:29;;;;;;;7.50;5.55;;;16.30;91.20;;;;;;4797197;29;20080;-79
2022/05/04 18:34:46;;;;;;;8.43;5.43;;;15.90;92.10;;;;;;4902224;29;20064;-78
2022/05/04 18:37:21;;;;;;;7.15;6.00;;;15.70;92.50;;;;;;4893183;29;20135;-80
2022/05/04 18:39:47;;;;;;;7.75;5.93;;;15.60;92.90;;;;;;4892565;29;20039;-80
2022/05/04 18:42:13;;;;;;;6.68;5.95;;;15.60;93.50;;;;;;4904099;29;20036;-80
2022/05/04 18:44:39;;;;;;;7.82;6.70;;;15.50;94.30;;;;;;4912121;29;20040;-78
2022/05/04 18:47:04;;;;;;;7.90;6.35;;;15.40;94.80;;;;;;4927604;29;20109;-79
2022/05/04 18:49:30;;;;;;;10.23;6.93;;;15.30;95.40;;;;;;4928973;29;20031;-79
2022/05/04 18:51:59;;;;;;;10.90;6.55;;;15.30;95.60;;;;;;4911439;29;20032;-80
2022/05/04 18:54:28;;;;;;;8.45;6.00;;;15.30;95.90;;;;;;4928918;29;20036;-80
2022/05/04 19:00:09;;;;;;;6.63;5.70;;;15.20;96.10;;;;;;4818390;29;20095;-78
2022/05/04 19:02:35;;;;;;;7.43;5.47;;;15.10;96.20;;;;;;4833302;29;20106;-79
2022/05/04 19:05:25;;;;;;;9.90;6.50;;;15.20;96.80;;;;;;4833586;29;20289;-79
2022/05/04 19:07:51;;;;;;;9.35;6.30;;;15.20;96.30;;;;;;4817615;29;20043;-82
2022/05/04 19:10:19;;;;;;;6.07;4.90;;;15.10;95.70;;;;;;4797879;29;20092;-80
2022/05/04 19:12:45;;;;;;;6.27;4.77;;;15.00;95.90;;;;;;4797012;29;20043;-81
2022/05/04 19:15:14;;;;;;;8.50;5.38;;;14.90;96.00;;;;;;4782126;29;20047;-79
2022/05/04 19:17:44;;;;;;;7.60;5.63;;;14.80;95.90;;;;;;4796049;29;20063;-79
2022/05/04 19:20:25;;;;;;;8.02;5.20;;;14.80;96.10;;;;;;4802084;29;20050;-81
2022/05/04 19:23:29;;;;;;;6.63;5.00;;;14.80;96.20;;;;;;4804275;29;20243;-79
2022/05/04 19:26:16;;;;;;;9.40;5.55;;;14.80;96.20;;;;;;4761707;30;20105;-80
2022/05/04 19:28:48;;;;;;;7.60;5.43;;;14.80;96.80;;;;;;4763936;30;20071;-80
2022/05/04 19:31:38;;;;;;;7.05;4.82;;;14.80;96.60;;;;;;4750099;30;20051;-79
2022/05/04 19:34:20;;;;;;;6.95;4.88;;;14.70;96.40;;;;;;4756242;30;20052;-79
2022/05/04 19:37:30;;;;;;;5.60;4.10;;;14.70;96.10;;;;;;4801509;29;20159;-79
2022/05/04 19:40:07;;;;;;;5.93;4.53;;;14.60;96.30;;;;;;4808660;29;20055;-80
2022/05/04 19:42:37;;;;;;;6.15;4.60;;;14.50;96.50;;;;;;4822977;29;20031;-80
2022/05/04 19:45:15;;;;;;;6.30;5.18;;;14.30;96.70;;;;;;4825819;29;20040;-79
2022/05/04 19:47:41;;;;;;;6.22;5.28;;;14.30;96.70;;;;;;4820897;29;20088;-79
2022/05/04 19:50:10;;;;;;;7.88;4.88;;;14.20;97.00;;;;;;4815784;29;20039;-78
2022/05/04 19:52:36;;;;;;;5.78;4.78;;;14.10;97.20;;;;;;4819539;29;20087;-78
2022/05/04 19:55:02;;;;;;;6.75;4.65;;;14.00;97.40;;;;;;4818031;29;20030;-77
2022/05/04 19:57:28;;;;;;;5.43;4.47;;;14.10;97.50;;;;;;4811045;29;20078;-78
2022/05/04 20:00:17;;;;;;;6.40;5.57;;;14.10;97.40;;;;;;4855123;29;20044;-79
2022/05/04 20:03:04;;;;;;;8.15;5.25;;;14.10;97.60;;;;;;4838210;29;20105;-80
2022/05/04 20:05:30;;;;;;;6.88;5.13;;;14.20;97.50;;;;;;4834393;29;20338;-79
2022/05/04 20:12:22;;;;;;;9.35;6.03;;;14.30;96.80;;;;;;4839343;29;20059;-76
2022/05/04 20:14:48;;;;;;;7.15;5.72;;;14.40;97.10;;;;;;4803257;29;20042;-79
2022/05/04 20:17:15;;;;;;;7.90;5.53;;;14.30;97.20;;;;;;4830299;29;20046;-79
2022/05/04 20:19:43;;;;;;;7.45;5.97;;;14.30;97.20;;;;;;4838518;29;20129;-82
2022/05/04 20:22:09;;;;;;;8.05;5.75;;;14.40;97.10;;;;;;4839490;29;20526;-79
2022/05/04 20:24:35;;;;;;;7.18;5.50;;;14.50;97.10;;;;;;4836878;29;20113;-80
2022/05/04 20:27:03;;;;;;;9.20;5.85;;;14.50;96.70;;;;;;4824491;29;20332;-79
2022/05/04 20:29:38;;;;;;;7.05;5.45;;;14.60;96.70;;;;;;4835241;29;20094;-79
2022/05/04 20:32:25;;;;;;;9.75;5.95;;;14.60;96.70;;;;;;4836981;29;20050;-80
2022/05/04 20:35:16;;;;;;;6.82;5.60;;;14.50;96.90;;;;;;4837965;29;20050;-78
2022/05/04 20:40:34;;;;;;;6.93;5.35;;;14.40;97.20;;;;;;4870963;29;20369;-79
2022/05/04 20:43:00;;;;;;;5.90;5.20;;;14.30;97.40;;;;;;4891111;29;20037;-78
2022/05/04 20:45:31;;;;;;;6.68;5.57;;;14.30;97.50;;;;;;4893102;29;20037;-79
2022/05/04 20:48:03;;;;;;;8.10;5.70;;;14.30;97.80;;;;;;4888908;29;20100;-80
2022/05/04 20:53:31;;;;;;;7.80;5.47;;;14.30;97.70;;;;;;4882491;29;20111;-81